Portada
METAR-TAF:

METAR-TAF

Aeroports :

Amritsar, Índia

latitud: 31-38N, longitud: 074-52E, altitud: 229 m

Observació

L'informe es va fer fa 22 minuts, a les 09:30 UTC
Vent 6 kt del Sud-Est
Temperatura 34°C
Humitat 63%
Pressió 998 hPa
Visibilitat: 3000 m
Núvols disperses a una alçada de 3000 ft
Cel cobert a una alçada de 9000 ft
calitja

METAR: VIAR 050930Z 14006KT 3000 HZ SCT030 OVC090 34/26 Q0998 NOSIG

Hora: 15:22 (09:52 UTC)

Pronòstic

L'informe es va fer fa 1 hora i 52 minuts, a les 08:00 UTC
Pronòstic vàlid del 05 a les 09 UTC al 05 a les 18 UTC
Vent 2 kt amb direcció variable
Visibilitat: 3000 m
Núvols disperses a una alçada de 4000 ft
Núvols disperses a una alçada de 10000 ft
calitja
Temporalment
l' 05 a les 12 UTC al 05 a les 15 UTC
Escasses núvols a una alçada de 4000 ft, Cumulonimbus.

TAF: VIAR 050800Z 0509/0518 VRB02KT 3000 HZ SCT040 SCT100 TEMPO 0512/0515 FEW040CB

Observacions i pronòstics meteorològics de més de 4000 aeroports (METAR i TAF).

Les estacions disponibles són els punts grocs i vermells al mapa.

Posi el ratolí al punt desitjat per veure el nom de l'estació.

Feu clic per veure les observacions i els pronòstics meteorològics.

Per canviar el mapa: feu clic els botons verds amb una creu de color negre per apropar; al botó verd amb un guió per allunyar la imatge; o en les fletxes verdes per a mapes adjacents.


METAR-TAF: